Soldotna, AK

3:24 PM AKST on February 25, 2017 (GMT -0900)
Soldotna

Weather History for PASX - December, 2011

Change the Weather History Date:

Tuesday, December 20, 2011

  Actual Average Record
Temperature  
Mean Temperature 32 °F -  
Max Temperature 39 °F 24 °F 45 °F (1969)
Min Temperature 24 °F 10 °F -23 °F (1961)
Degree Days  
Heating Degree Days 34    
Moisture  
Dew Point 26 °F    
Average Humidity 82    
Maximum Humidity 93    
Minimum Humidity 69    
Precipitation  
Precipitation 0.00 in - - ()
Sea Level Pressure  
Sea Level Pressure 29.60 in    
Wind  
Wind Speed 9 mph (SSE)    
Max Wind Speed 18 mph    
Max Gust Speed 28 mph    
Visibility 10 miles    
Events      
Averages and records for this station are not official NWS values.
T = Trace of Precipitation, MM = Missing Value Source: NWS Daily Summary

Daily Weather History Graph

Daily Weather History Graph

Search for Another Location

Airport or City:

Trip Planner

Search our weather history database for the weather conditions in past years. The results will help you decide how hot, cold, wet, or windy it might be!

Date:

Astronomy

Dec. 20, 2011 Rise Set
Actual Time 10:10 AM AKST 3:53 PM AKST
Civil Twilight 9:10 AM AKST 4:52 PM AKST
Nautical Twilight 8:12 AM AKST 5:50 PM AKST
Astronomical Twilight 7:20 AM AKST 6:43 PM AKST
Moon 5:02 AM AKST (12/20) 1:11 PM AKST (12/20)
Length of Visible Light 7h 41m
Length of Day
5h 42m
Waning Crescent, 20% of the Moon is Illuminated
Dec 20
Waning Crescent
Dec 24
New
Dec 31
First Quarter
Jan 8
Full
Jan 16
Last Quarter

Hourly Weather History & Observations

Time (AKST) Temp. Windchill Dew Point Humidity Pressure Visibility Wind Dir Wind Speed Gust Speed Precip Events Conditions
12:16 AM 32.0 °F 22.5 °F 28.4 °F 87% 29.57 in 10.0 mi SSW 12.7 mph 18.4 mph N/A   Overcast
12:36 AM 32.0 °F 22.5 °F 28.4 °F 87% 29.60 in 10.0 mi SW 12.7 mph 17.3 mph N/A   Overcast
12:56 AM 32.0 °F 23.0 °F 28.4 °F 87% 29.62 in 10.0 mi WSW 11.5 mph - N/A   Overcast
1:16 AM 32.0 °F 24.8 °F 28.4 °F 87% 29.64 in 10.0 mi SW 8.1 mph 17.3 mph N/A   Overcast
1:36 AM 30.2 °F 21.9 °F 28.4 °F 93% 29.65 in 5.0 mi SW 9.2 mph - N/A   Overcast
1:56 AM 30.2 °F 21.9 °F 28.4 °F 93% 29.67 in 10.0 mi SW 9.2 mph - N/A   Overcast
2:16 AM 30.2 °F 24.3 °F 26.6 °F 86% 29.68 in 10.0 mi WSW 5.8 mph - N/A   Overcast
2:36 AM 30.2 °F 25.4 °F 28.4 °F 93% 29.69 in 10.0 mi SW 4.6 mph - N/A   Overcast
2:56 AM 30.2 °F 24.3 °F 28.4 °F 93% 29.70 in 10.0 mi South 5.8 mph - N/A   Overcast
3:16 AM 30.2 °F 22.6 °F 26.6 °F 86% 29.70 in 10.0 mi South 8.1 mph - N/A   Mostly Cloudy
3:56 AM 30.2 °F 21.3 °F 26.6 °F 86% 29.72 in 10.0 mi South 10.4 mph - N/A   Clear
4:16 AM 30.2 °F 22.6 °F 24.8 °F 80% 29.73 in 10.0 mi SSW 8.1 mph 16.1 mph N/A   Clear
4:56 AM 30.2 °F 21.9 °F 24.8 °F 80% 29.73 in 10.0 mi South 9.2 mph - N/A   Clear
5:16 AM 32.0 °F 24.8 °F 23.0 °F 69% 29.74 in 10.0 mi South 8.1 mph - N/A   Clear
5:36 AM 30.2 °F 23.4 °F 21.2 °F 69% 29.74 in 10.0 mi South 6.9 mph - N/A   Clear
5:56 AM 30.2 °F 25.4 °F 21.2 °F 69% 29.75 in 10.0 mi SSW 4.6 mph - N/A   Clear
6:16 AM 28.4 °F 23.3 °F 21.2 °F 74% 29.75 in 10.0 mi ESE 4.6 mph - N/A   Clear
6:36 AM 26.6 °F 20.0 °F 21.2 °F 80% 29.74 in 10.0 mi ESE 5.8 mph - N/A   Clear
6:56 AM 24.8 °F 15.3 °F 21.2 °F 86% 29.74 in 10.0 mi ESE 9.2 mph - N/A   Clear
7:16 AM 24.8 °F 20.5 °F 21.2 °F 86% 29.73 in 10.0 mi East 3.5 mph - N/A   Clear
7:36 AM 26.6 °F 20.0 °F 23.0 °F 86% 29.73 in 10.0 mi SE 5.8 mph - N/A   Clear
7:56 AM 24.8 °F 19.1 °F 21.2 °F 86% 29.73 in 10.0 mi ESE 4.6 mph - N/A   Clear
8:16 AM 24.8 °F 16.1 °F 19.4 °F 80% 29.72 in 10.0 mi ESE 8.1 mph - N/A   Clear
8:36 AM 26.6 °F 21.2 °F 21.2 °F 80% 29.72 in 10.0 mi ESE 4.6 mph - N/A   Clear
8:56 AM 24.8 °F 17.9 °F 19.4 °F 80% 29.72 in 10.0 mi SE 5.8 mph - N/A   Clear
9:16 AM 24.8 °F 16.9 °F 21.2 °F 86% 29.71 in 10.0 mi East 6.9 mph - N/A   Clear
9:36 AM 24.8 °F 16.9 °F 21.2 °F 86% 29.70 in 10.0 mi ESE 6.9 mph - N/A   Mostly Cloudy
9:56 AM 26.6 °F 20.0 °F 21.2 °F 80% 29.68 in 10.0 mi East 5.8 mph - N/A   Overcast
10:16 AM 26.6 °F 18.2 °F 21.2 °F 80% 29.67 in 10.0 mi East 8.1 mph - N/A   Overcast
10:36 AM 26.6 °F 17.5 °F 21.2 °F 80% 29.66 in 10.0 mi ESE 9.2 mph - N/A   Overcast
10:56 AM 28.4 °F 20.4 °F 21.2 °F 74% 29.64 in 10.0 mi ESE 8.1 mph - N/A   Overcast
11:16 AM 28.4 °F 21.2 °F 21.2 °F 74% 29.62 in 10.0 mi East 6.9 mph - N/A   Overcast
11:36 AM 28.4 °F 21.2 °F 21.2 °F 74% 29.60 in 10.0 mi ESE 6.9 mph - N/A   Overcast
11:56 AM 28.4 °F 20.4 °F 24.8 °F 86% 29.58 in 10.0 mi ESE 8.1 mph - N/A   Overcast
12:16 PM 30.2 °F 22.6 °F 24.8 °F 80% 29.55 in 10.0 mi East 8.1 mph - N/A   Overcast
12:36 PM 33.8 °F 25.3 °F 26.6 °F 75% 29.54 in 10.0 mi East 11.5 mph - N/A   Overcast
12:56 PM 35.6 °F 30.7 °F 28.4 °F 75% 29.53 in 5.0 mi ESE 5.8 mph - N/A   Overcast
1:16 PM 35.6 °F 27.5 °F 28.4 °F 75% 29.52 in 9.0 mi SE 11.5 mph 16.1 mph N/A   Overcast
1:36 PM 37.4 °F 27.5 °F 30.2 °F 75% 29.50 in 10.0 mi SE 18.4 mph 23.0 mph N/A   Overcast
1:56 PM 37.4 °F 28.5 °F 30.2 °F 75% 29.49 in 10.0 mi SE 15.0 mph 23.0 mph N/A   Overcast
2:16 PM 37.4 °F 29.3 °F 32.0 °F 81% 29.48 in 10.0 mi SSE 12.7 mph 20.7 mph N/A   Overcast
2:36 PM 35.6 °F 29.9 °F 30.2 °F 81% 29.46 in 10.0 mi SSE 6.9 mph - N/A   Overcast
2:56 PM 35.6 °F 31.7 °F 30.2 °F 81% 29.45 in 10.0 mi SW 4.6 mph - N/A   Overcast
3:16 PM 35.6 °F 32.8 °F 30.2 °F 81% 29.44 in 8.0 mi WSW 3.5 mph - N/A   Overcast
3:36 PM 33.8 °F - 30.2 °F 87% 29.43 in 5.0 mi Calm Calm - N/A   Overcast
3:56 PM 33.8 °F - 30.2 °F 87% 29.42 in 8.0 mi Calm Calm - N/A   Overcast
4:16 PM 33.8 °F 24.8 °F 30.2 °F 87% 29.39 in 9.0 mi East 12.7 mph - N/A   Overcast
4:36 PM 33.8 °F 27.0 °F 30.2 °F 87% 29.38 in 9.0 mi ESE 8.1 mph - N/A   Overcast
4:56 PM 37.4 °F 28.5 °F 33.8 °F 87% 29.36 in 10.0 mi SE 15.0 mph 21.9 mph N/A   Overcast
5:16 PM 37.4 °F 28.2 °F 33.8 °F 87% 29.36 in 10.0 mi SSE 16.1 mph 23.0 mph N/A   Overcast
5:36 PM 37.4 °F 30.8 °F 33.8 °F 87% 29.36 in 10.0 mi SE 9.2 mph - N/A   Overcast
5:56 PM 39.2 °F 30.8 °F 33.8 °F 81% 29.36 in 10.0 mi SSE 15.0 mph 27.6 mph N/A   Overcast
6:16 PM 39.2 °F 31.6 °F 33.8 °F 81% 29.34 in 10.0 mi SSE 12.7 mph 19.6 mph N/A   Overcast
6:36 PM 39.2 °F 30.8 °F 32.0 °F 75% 29.35 in 10.0 mi SSE 15.0 mph 23.0 mph N/A   Overcast
6:56 PM 39.2 °F 32.5 °F 33.8 °F 81% 29.35 in 10.0 mi South 10.4 mph 18.4 mph N/A   Overcast
7:16 PM 39.2 °F 31.2 °F 33.8 °F 81% 29.34 in 10.0 mi SSE 13.8 mph 19.6 mph N/A   Overcast
7:36 PM 39.2 °F 32.0 °F 32.0 °F 75% 29.33 in 10.0 mi SSE 11.5 mph 18.4 mph N/A   Overcast
7:56 PM 39.2 °F 32.0 °F 32.0 °F 75% 29.32 in 10.0 mi SSE 11.5 mph 17.3 mph N/A   Mostly Cloudy
8:16 PM 39.2 °F 31.6 °F 30.2 °F 70% 29.34 in 10.0 mi South 12.7 mph 17.3 mph N/A   Scattered Clouds
8:36 PM 39.2 °F 33.0 °F 30.2 °F 70% 29.34 in 10.0 mi SSW 9.2 mph 16.1 mph N/A   Mostly Cloudy
8:56 PM 37.4 °F 32.1 °F 30.2 °F 75% 29.34 in 10.0 mi South 6.9 mph - N/A   Partly Cloudy
9:16 PM 37.4 °F 31.4 °F 30.2 °F 75% 29.34 in 10.0 mi South 8.1 mph 18.4 mph N/A   Partly Cloudy
9:36 PM 37.4 °F 30.8 °F 30.2 °F 75% 29.33 in 10.0 mi South 9.2 mph - N/A   Mostly Cloudy
9:56 PM 37.4 °F 30.8 °F 28.4 °F 70% 29.34 in 10.0 mi SSE 9.2 mph - N/A   Mostly Cloudy
10:16 PM 37.4 °F 32.1 °F 28.4 °F 70% 29.34 in 10.0 mi SSE 6.9 mph - N/A   Mostly Cloudy
10:36 PM 37.4 °F 30.8 °F 30.2 °F 75% 29.36 in 10.0 mi South 9.2 mph - N/A   Overcast
10:56 PM 37.4 °F 29.3 °F 30.2 °F 75% 29.36 in 10.0 mi South 12.7 mph 19.6 mph N/A   Mostly Cloudy
11:16 PM 37.4 °F 31.4 °F 30.2 °F 75% 29.37 in 10.0 mi South 8.1 mph - N/A   Scattered Clouds
11:36 PM 37.4 °F 29.8 °F 30.2 °F 75% 29.38 in 10.0 mi SSW 11.5 mph - N/A   Scattered Clouds
11:56 PM 37.4 °F 29.3 °F 28.4 °F 70% 29.38 in 10.0 mi South 12.7 mph 18.4 mph N/A   Mostly Cloudy